createdAt,value
2023-04-09T00:01:23.970Z,100.00
2023-04-09T00:03:55.351Z,100.00
2023-04-09T00:06:26.321Z,100.00
2023-04-09T00:08:58.266Z,100.00
2023-04-09T00:11:32.506Z,100.00
2023-04-09T00:14:02.925Z,100.00
2023-04-09T00:16:39.508Z,100.00
2023-04-09T00:19:10.773Z,100.00
2023-04-09T00:21:41.328Z,100.00
2023-04-09T00:24:14.697Z,100.00
2023-04-09T00:26:53.816Z,100.00
2023-04-09T00:29:25.556Z,100.00
2023-04-09T00:31:56.395Z,100.00
2023-04-09T00:34:32.352Z,100.00
2023-04-09T00:37:03.110Z,100.00
2023-04-09T00:39:33.580Z,100.00
2023-04-09T00:42:04.552Z,100.00
2023-04-09T00:44:35.867Z,100.00
2023-04-09T00:47:20.129Z,100.00
2023-04-09T00:49:58.091Z,100.00
2023-04-09T00:52:29.604Z,100.00
2023-04-09T00:55:08.076Z,100.00
2023-04-09T00:57:38.588Z,100.00
2023-04-09T01:00:10.817Z,100.00
2023-04-09T01:02:42.425Z,100.00
2023-04-09T01:05:17.766Z,100.00
2023-04-09T01:08:06.298Z,100.00
2023-04-09T01:10:43.358Z,100.00
2023-04-09T01:13:25.976Z,100.00
2023-04-09T01:16:15.115Z,100.00
2023-04-09T01:19:01.143Z,100.00
2023-04-09T01:21:34.760Z,100.00
2023-04-09T01:24:24.768Z,100.00
2023-04-09T01:27:07.293Z,100.00
2023-04-09T01:29:47.519Z,100.00
2023-04-09T01:32:21.320Z,100.00
2023-04-09T01:34:55.462Z,100.00
2023-04-09T01:37:27.456Z,100.00
2023-04-09T01:39:59.722Z,100.00
2023-04-09T01:42:30.231Z,100.00
2023-04-09T01:45:03.145Z,100.00
2023-04-09T01:47:34.943Z,100.00
2023-04-09T01:50:06.475Z,100.00
2023-04-09T01:52:37.645Z,100.00
2023-04-09T01:55:08.628Z,100.00
2023-04-09T01:57:39.256Z,100.00
2023-04-09T02:00:12.688Z,100.00
2023-04-09T02:02:56.373Z,100.00
2023-04-09T02:05:30.118Z,100.00
2023-04-09T02:08:02.971Z,100.00
2023-04-09T02:10:38.562Z,100.00
2023-04-09T02:13:11.905Z,100.00
2023-04-09T02:15:43.789Z,100.00
2023-04-09T02:18:25.460Z,100.00
2023-04-09T02:20:57.627Z,100.00
2023-04-09T02:23:28.407Z,100.00
2023-04-09T02:25:59.333Z,100.00
2023-04-09T02:28:30.378Z,100.00
2023-04-09T02:31:01.754Z,100.00
2023-04-09T02:33:32.269Z,100.00
2023-04-09T02:36:03.190Z,100.00
2023-04-09T02:38:34.234Z,100.00
2023-04-09T02:41:05.577Z,100.00
2023-04-09T02:43:36.631Z,100.00
2023-04-09T02:46:08.039Z,100.00
2023-04-09T02:48:39.083Z,100.00
2023-04-09T02:51:09.709Z,100.00
2023-04-09T02:53:41.706Z,100.00
2023-04-09T02:56:12.662Z,100.00
2023-04-09T02:58:44.201Z,100.00
2023-04-09T03:01:15.339Z,100.00
2023-04-09T03:03:47.706Z,100.00
2023-04-09T03:06:18.667Z,100.00
2023-04-09T03:08:50.097Z,100.00
2023-04-09T03:11:21.380Z,100.00
2023-04-09T03:13:51.838Z,100.00
2023-04-09T03:16:27.309Z,100.00
2023-04-09T03:18:57.754Z,100.00
2023-04-09T03:21:28.275Z,100.00
2023-04-09T03:23:58.619Z,100.00
2023-04-09T03:26:29.403Z,100.00
2023-04-09T03:29:00.482Z,100.00
2023-04-09T03:31:31.384Z,100.00
2023-04-09T03:34:02.065Z,100.00
2023-04-09T03:36:33.269Z,100.00
2023-04-09T03:39:03.731Z,100.00
2023-04-09T03:41:40.996Z,100.00
2023-04-09T03:44:11.386Z,100.00
2023-04-09T03:46:42.090Z,100.00
2023-04-09T03:49:12.600Z,100.00
2023-04-09T03:51:42.988Z,100.00
2023-04-09T03:54:19.282Z,100.00
2023-04-09T03:56:50.616Z,100.00
2023-04-09T03:59:24.851Z,100.00
2023-04-09T04:01:58.478Z,100.00
2023-04-09T04:04:29.384Z,100.00
2023-04-09T04:07:00.533Z,100.00
2023-04-09T04:09:31.654Z,100.00
2023-04-09T04:12:04.205Z,100.00
2023-04-09T04:14:44.070Z,100.00
2023-04-09T04:17:17.070Z,100.00
2023-04-09T04:19:48.028Z,100.00
2023-04-09T04:22:19.224Z,100.00
2023-04-09T04:24:49.911Z,100.00
2023-04-09T04:27:20.426Z,100.00
2023-04-09T04:29:50.894Z,100.00
2023-04-09T04:32:22.191Z,100.00
2023-04-09T04:34:54.797Z,100.00
2023-04-09T04:37:53.562Z,100.00
2023-04-09T04:40:26.956Z,100.00
2023-04-09T04:42:57.544Z,100.00
2023-04-09T04:45:31.584Z,100.00
2023-04-09T04:51:20.033Z,100.00
2023-04-09T04:53:54.017Z,100.00
2023-04-09T04:56:24.752Z,100.00
2023-04-09T04:58:58.695Z,100.00
2023-04-09T05:01:29.560Z,100.00
2023-04-09T05:04:07.384Z,100.00
2023-04-09T05:06:38.539Z,100.00
2023-04-09T05:09:09.088Z,100.00
2023-04-09T05:11:39.602Z,100.00
2023-04-09T05:14:11.141Z,100.00
2023-04-09T05:16:43.355Z,100.00
2023-04-09T05:19:26.025Z,100.00
2023-04-09T05:21:56.101Z,100.00
2023-04-09T05:24:26.572Z,100.00
2023-04-09T05:26:56.939Z,100.00
2023-04-09T05:29:28.200Z,100.00
2023-04-09T05:32:12.963Z,100.00
2023-04-09T05:34:43.797Z,100.00
2023-04-09T05:37:14.419Z,100.00
2023-04-09T05:39:46.955Z,100.00
2023-04-09T05:42:19.613Z,100.00
2023-04-09T05:44:50.173Z,100.00
2023-04-09T05:47:21.292Z,100.00
2023-04-09T05:49:52.305Z,100.00
2023-04-09T05:52:25.794Z,100.00
2023-04-09T05:55:06.441Z,100.00
2023-04-09T05:57:37.863Z,100.00
2023-04-09T06:00:13.080Z,100.00
2023-04-09T06:02:49.664Z,100.00
2023-04-09T06:05:22.415Z,100.00
2023-04-09T06:07:55.076Z,100.00
2023-04-09T06:10:28.399Z,100.00
2023-04-09T06:13:03.560Z,100.00
2023-04-09T06:15:47.973Z,100.00
2023-04-09T06:18:19.124Z,100.00
2023-04-09T06:20:50.985Z,100.00
2023-04-09T06:23:30.213Z,100.00
2023-04-09T06:26:45.924Z,100.00
2023-04-09T06:28:56.568Z,99.13
2023-04-09T06:31:30.711Z,98.36
2023-04-09T06:34:02.113Z,97.08
2023-04-09T06:36:39.011Z,96.49
2023-04-09T06:39:11.170Z,95.53
2023-04-09T06:41:43.160Z,97.03
2023-04-09T06:44:16.769Z,97.03
2023-04-09T06:46:52.156Z,96.43
2023-04-09T06:49:28.801Z,97.52
2023-04-09T06:52:01.711Z,95.95
2023-04-09T06:54:36.200Z,94.72
2023-04-09T06:57:12.556Z,94.72
2023-04-09T06:59:45.738Z,93.65
2023-04-09T07:02:32.859Z,95.20
2023-04-09T07:05:10.958Z,94.17
2023-04-09T07:07:45.453Z,94.17
2023-04-09T07:10:20.098Z,91.98
2023-04-09T07:12:51.150Z,92.11
2023-04-09T07:15:22.218Z,88.79
2023-04-09T07:18:02.805Z,88.79
2023-04-09T07:20:34.580Z,90.65
2023-04-09T07:23:07.792Z,88.04
2023-04-09T07:25:39.706Z,88.53
2023-04-09T07:28:15.183Z,88.90
2023-04-09T07:30:50.773Z,87.34
2023-04-09T07:33:27.094Z,87.29
2023-04-09T07:36:02.726Z,89.32
2023-04-09T07:38:33.934Z,90.61
2023-04-09T07:41:18.160Z,89.09
2023-04-09T07:43:49.270Z,88.12
2023-04-09T07:46:23.138Z,88.28
2023-04-09T07:48:57.607Z,87.47
2023-04-09T07:51:30.011Z,87.89
2023-04-09T07:54:02.497Z,85.82
2023-04-09T07:56:40.738Z,83.91
2023-04-09T07:59:11.871Z,82.61
2023-04-09T08:01:48.520Z,78.33
2023-04-09T08:04:24.144Z,79.78
2023-04-09T08:06:54.780Z,79.78
2023-04-09T08:09:29.595Z,72.79
2023-04-09T08:12:02.935Z,72.46
2023-04-09T08:14:36.451Z,73.06
2023-04-09T08:17:11.639Z,73.06
2023-04-09T08:19:43.723Z,72.34
2023-04-09T08:22:22.320Z,74.67
2023-04-09T08:24:59.068Z,75.43
2023-04-09T08:27:44.285Z,76.50
2023-04-09T08:36:37.972Z,77.85
2023-04-09T08:39:09.221Z,77.85
2023-04-09T08:41:43.522Z,81.11
2023-04-09T08:44:19.029Z,81.03
2023-04-09T08:46:56.516Z,83.67
2023-04-09T08:49:27.312Z,82.83
2023-04-09T08:51:58.390Z,80.82
2023-04-09T08:54:28.928Z,79.81
2023-04-09T08:57:07.496Z,79.81
2023-04-09T08:59:38.050Z,80.56
2023-04-09T09:02:18.929Z,80.46
2023-04-09T09:04:54.595Z,79.16
2023-04-09T09:07:24.868Z,79.36
2023-04-09T09:10:11.874Z,78.05
2023-04-09T09:12:43.075Z,78.05
2023-04-09T09:15:28.153Z,77.95
2023-04-09T09:18:04.215Z,77.97
2023-04-09T09:20:37.407Z,77.75
2023-04-09T09:23:13.527Z,77.75
2023-04-09T09:25:49.609Z,78.19
2023-04-09T09:28:21.485Z,77.46
2023-04-09T09:30:53.300Z,78.99
2023-04-09T09:33:23.761Z,78.14
2023-04-09T09:35:56.212Z,78.71
2023-04-09T09:38:26.726Z,79.26
2023-04-09T09:40:59.038Z,77.18
2023-04-09T09:43:41.398Z,75.66
2023-04-09T09:46:12.521Z,75.66
2023-04-09T09:48:46.860Z,75.16
2023-04-09T09:51:18.746Z,75.16
2023-04-09T09:53:57.284Z,74.30
2023-04-09T09:56:34.326Z,74.67
2023-04-09T09:59:26.156Z,76.10
2023-04-09T10:02:04.613Z,76.10
2023-04-09T10:04:36.151Z,75.67
2023-04-09T10:07:09.249Z,75.67
2023-04-09T10:09:46.910Z,76.68
2023-04-09T10:12:20.895Z,77.62
2023-04-09T10:14:54.997Z,77.62
2023-04-09T10:17:25.510Z,81.22
2023-04-09T10:19:59.106Z,83.37
2023-04-09T10:22:32.206Z,83.80
2023-04-09T10:25:04.701Z,83.80
2023-04-09T10:27:36.681Z,84.78
2023-04-09T10:30:08.873Z,86.75
2023-04-09T10:32:40.175Z,87.37
2023-04-09T10:35:11.256Z,84.90
2023-04-09T10:37:50.410Z,84.90
2023-04-09T10:40:23.457Z,81.11
2023-04-09T10:42:58.386Z,78.69
2023-04-09T10:45:32.991Z,77.92
2023-04-09T10:48:07.079Z,74.21
2023-04-09T10:50:45.744Z,72.68
2023-04-09T10:53:28.663Z,71.92
2023-04-09T10:56:01.905Z,70.74
2023-04-09T10:58:34.496Z,71.82
2023-04-09T11:01:07.612Z,72.85
2023-04-09T11:03:42.152Z,71.26
2023-04-09T11:06:15.805Z,71.26
2023-04-09T11:08:46.652Z,72.28
2023-04-09T11:11:17.733Z,72.51
2023-04-09T11:13:51.242Z,73.23
2023-04-09T11:16:25.489Z,73.23
2023-04-09T11:18:56.729Z,70.91
2023-04-09T11:21:28.296Z,70.34
2023-04-09T11:23:59.254Z,69.01
2023-04-09T11:26:37.637Z,69.01
2023-04-09T11:29:11.494Z,67.60
2023-04-09T11:31:44.935Z,67.60
2023-04-09T11:34:17.502Z,69.10
2023-04-09T11:36:52.197Z,68.55
2023-04-09T11:39:22.788Z,68.55
2023-04-09T11:41:58.788Z,68.41
2023-04-09T11:44:29.837Z,67.85
2023-04-09T11:47:03.008Z,67.85
2023-04-09T11:49:34.418Z,64.99
2023-04-09T11:52:11.209Z,64.32
2023-04-09T11:54:42.410Z,64.13
2023-04-09T11:57:13.535Z,64.13
2023-04-09T11:59:45.964Z,60.84
2023-04-09T12:02:18.922Z,59.25
2023-04-09T12:04:51.022Z,59.25
2023-04-09T12:07:23.391Z,60.61
2023-04-09T12:09:54.438Z,54.83
2023-04-09T12:12:25.593Z,47.75
2023-04-09T12:14:57.077Z,48.30
2023-04-09T12:17:28.228Z,48.30
2023-04-09T12:20:03.274Z,48.25
2023-04-09T12:22:34.187Z,54.32
2023-04-09T12:25:08.773Z,54.32
2023-04-09T12:27:40.026Z,56.02
2023-04-09T12:30:13.490Z,58.02
2023-04-09T12:32:44.800Z,58.02
2023-04-09T12:35:15.951Z,56.30
2023-04-09T12:37:46.735Z,55.06
2023-04-09T12:40:18.348Z,53.11
2023-04-09T12:42:49.596Z,54.71
2023-04-09T12:45:21.450Z,56.66
2023-04-09T12:47:55.072Z,56.66
2023-04-09T12:50:26.451Z,57.23
2023-04-09T12:52:59.079Z,57.07
2023-04-09T12:55:34.546Z,58.51
2023-04-09T12:58:19.792Z,57.44
2023-04-09T13:01:00.755Z,58.36
2023-04-09T13:03:32.451Z,58.36
2023-04-09T13:06:04.133Z,59.59
2023-04-09T13:08:35.428Z,60.90
2023-04-09T13:11:07.340Z,62.61
2023-04-09T13:13:39.841Z,62.87
2023-04-09T13:16:13.190Z,64.54
2023-04-09T13:18:44.853Z,65.03
2023-04-09T13:21:17.089Z,65.03
2023-04-09T13:23:48.321Z,67.47
2023-04-09T13:26:21.722Z,67.47
2023-04-09T13:28:55.987Z,68.50
2023-04-09T13:31:29.913Z,69.93
2023-04-09T13:34:02.474Z,69.95
2023-04-09T13:36:37.013Z,69.95
2023-04-09T13:39:08.260Z,70.43
2023-04-09T13:41:39.478Z,72.76
2023-04-09T13:44:11.747Z,74.40
2023-04-09T13:46:43.398Z,76.58
2023-04-09T13:49:14.542Z,76.58
2023-04-09T13:51:54.056Z,77.48
2023-04-09T13:54:28.606Z,80.32
2023-04-09T13:57:00.030Z,80.32
2023-04-09T13:59:31.481Z,79.49
2023-04-09T14:02:03.790Z,80.00
2023-04-09T14:04:36.339Z,84.69
2023-04-09T14:07:08.327Z,86.11
2023-04-09T14:09:41.233Z,87.21
2023-04-09T14:12:16.688Z,88.39
2023-04-09T14:14:47.747Z,88.39
2023-04-09T14:17:18.332Z,87.98
2023-04-09T14:19:51.196Z,87.54
2023-04-09T14:22:23.208Z,87.54
2023-04-09T14:24:55.072Z,87.62
2023-04-09T14:27:33.567Z,89.46
2023-04-09T14:30:07.047Z,89.67
2023-04-09T14:32:40.878Z,89.67
2023-04-09T14:35:12.031Z,84.19
2023-04-09T14:37:43.890Z,84.19
2023-04-09T14:40:15.084Z,81.81
2023-04-09T14:42:46.698Z,80.52
2023-04-09T14:45:17.988Z,80.42
2023-04-09T14:47:49.353Z,80.42
2023-04-09T14:50:20.675Z,79.83
2023-04-09T14:52:51.799Z,79.51
2023-04-09T14:55:25.918Z,80.72
2023-04-09T14:57:57.772Z,80.54
2023-04-09T15:00:40.025Z,80.64
2023-04-09T15:03:16.146Z,80.64
2023-04-09T15:06:49.382Z,81.59
2023-04-09T15:08:55.326Z,82.19
2023-04-09T15:11:41.048Z,82.19
2023-04-09T15:14:15.364Z,82.06
2023-04-09T15:17:41.427Z,82.58
2023-04-09T15:19:44.139Z,82.58
2023-04-09T15:22:08.847Z,82.29
2023-04-09T15:24:43.667Z,82.29
2023-04-09T15:27:22.867Z,82.82
2023-04-09T15:40:33.134Z,82.98
2023-04-09T15:43:40.970Z,85.11
2023-04-09T15:46:35.261Z,85.63
2023-04-09T15:49:20.638Z,86.61
2023-04-09T15:52:08.117Z,87.16
2023-04-09T15:58:13.445Z,87.90
2023-04-09T16:00:47.213Z,88.14
2023-04-09T16:07:18.641Z,89.65
2023-04-09T16:09:53.843Z,89.99
2023-04-09T16:19:30.846Z,88.86
2023-04-09T16:22:06.097Z,88.28
2023-04-09T16:24:37.334Z,88.77
2023-04-09T16:27:10.048Z,88.56
2023-04-09T16:29:44.268Z,88.34
2023-04-09T16:32:29.789Z,89.30
2023-04-09T16:35:09.566Z,89.32
2023-04-09T16:37:49.696Z,89.63
2023-04-09T16:40:24.364Z,90.56
2023-04-09T16:43:05.017Z,91.25
2023-04-09T16:46:50.940Z,91.59
2023-04-09T16:48:16.389Z,92.64
2023-04-09T17:02:31.939Z,94.38
2023-04-09T17:05:06.032Z,94.38
2023-04-09T17:08:01.224Z,95.88
2023-04-09T17:10:53.900Z,95.22
2023-04-09T17:13:33.337Z,95.34
2023-04-09T17:18:58.857Z,95.47
2023-04-09T17:21:41.086Z,95.39
2023-04-09T17:24:14.365Z,94.92
2023-04-09T17:26:50.094Z,95.33
2023-04-09T17:29:35.168Z,94.38
2023-04-09T17:35:17.801Z,91.04
2023-04-09T17:37:55.196Z,90.82
2023-04-09T17:40:38.069Z,92.21
2023-04-09T17:43:15.802Z,90.89
2023-04-09T17:46:17.162Z,90.89
2023-04-09T17:48:33.542Z,91.35
2023-04-09T17:54:27.457Z,92.32
2023-04-09T17:57:29.896Z,92.46
2023-04-09T18:00:19.450Z,91.82
2023-04-09T18:02:55.436Z,90.26
2023-04-09T18:05:31.526Z,89.12
2023-04-09T18:08:07.774Z,89.46
2023-04-09T18:10:43.620Z,93.57
2023-04-09T18:13:14.450Z,93.57
2023-04-09T18:15:48.484Z,91.22
2023-04-09T18:18:27.187Z,93.71
2023-04-09T18:21:09.155Z,94.52
2023-04-09T18:23:47.692Z,94.32
2023-04-09T18:26:22.808Z,95.62
2023-04-09T18:29:03.714Z,95.60
2023-04-09T18:31:33.685Z,95.35
2023-04-09T18:34:06.470Z,94.42
2023-04-09T18:36:41.728Z,94.42
2023-04-09T18:39:18.957Z,95.36
2023-04-09T18:41:53.262Z,95.97
2023-04-09T18:44:32.312Z,97.19
2023-04-09T18:47:04.738Z,97.13
2023-04-09T18:49:40.180Z,95.69
2023-04-09T18:52:23.309Z,95.25
2023-04-09T18:55:05.272Z,96.44
2023-04-09T18:57:31.197Z,96.45
2023-04-09T19:00:05.710Z,96.45
2023-04-09T19:02:39.645Z,96.82
2023-04-09T19:05:15.287Z,97.27
2023-04-09T19:07:53.777Z,98.19
2023-04-09T19:10:24.943Z,98.62
2023-04-09T19:12:57.015Z,98.18
2023-04-09T19:15:28.638Z,96.93
2023-04-09T19:18:06.220Z,95.05
2023-04-09T19:20:38.283Z,95.39
2023-04-09T19:23:13.405Z,96.37
2023-04-09T19:25:54.249Z,95.63
2023-04-09T19:28:27.828Z,96.17
2023-04-09T19:31:02.070Z,96.17
2023-04-09T19:33:42.475Z,95.34
2023-04-09T19:36:11.717Z,95.66
2023-04-09T19:38:50.914Z,95.33
2023-04-09T19:41:22.462Z,95.33
2023-04-09T19:43:58.239Z,95.43
2023-04-09T19:46:31.919Z,95.57
2023-04-09T19:49:07.335Z,95.79
2023-04-09T19:51:40.859Z,94.60
2023-04-09T19:54:15.801Z,94.31
2023-04-09T19:56:50.099Z,94.34
2023-04-09T19:59:22.486Z,95.38
2023-04-09T20:01:55.200Z,95.93
2023-04-09T20:04:28.578Z,96.53
2023-04-09T20:07:05.973Z,97.55
2023-04-09T20:09:48.647Z,98.52
2023-04-09T20:12:20.474Z,99.25
2023-04-09T20:14:54.232Z,98.72
2023-04-09T20:17:31.042Z,98.60
2023-04-09T20:20:09.515Z,98.75
2023-04-09T20:22:47.997Z,99.98
2023-04-09T20:25:24.112Z,99.91
2023-04-09T20:27:54.725Z,100.00
2023-04-09T20:30:27.681Z,100.00
2023-04-09T20:33:04.062Z,100.00
2023-04-09T20:35:39.226Z,100.00
2023-04-09T20:38:13.555Z,100.00
2023-04-09T20:43:38.619Z,100.00
2023-04-09T20:46:09.729Z,100.00
2023-04-09T20:48:41.859Z,100.00
2023-04-09T20:51:16.643Z,100.00
2023-04-09T20:53:47.433Z,100.00
2023-04-09T20:56:22.655Z,100.00
2023-04-09T20:58:54.102Z,100.00
2023-04-09T21:01:28.841Z,100.00
2023-04-09T21:04:03.433Z,100.00
2023-04-09T21:06:35.106Z,100.00
2023-04-09T21:09:08.423Z,100.00
2023-04-09T21:11:39.106Z,100.00
2023-04-09T21:14:11.489Z,100.00
2023-04-09T21:16:45.395Z,100.00
2023-04-09T21:19:22.857Z,100.00
2023-04-09T21:21:56.825Z,100.00
2023-04-09T21:24:27.411Z,100.00
2023-04-09T21:26:57.950Z,100.00
2023-04-09T21:29:29.324Z,100.00
2023-04-09T21:31:59.992Z,100.00
2023-04-09T21:34:31.835Z,100.00
2023-04-09T21:37:03.636Z,100.00
2023-04-09T21:39:34.341Z,100.00
2023-04-09T21:42:04.879Z,100.00
2023-04-09T21:44:36.839Z,100.00
2023-04-09T21:47:07.415Z,100.00
2023-04-09T21:49:38.033Z,100.00
2023-04-09T21:52:08.880Z,100.00
2023-04-09T21:54:39.939Z,100.00
2023-04-09T21:57:11.132Z,100.00
2023-04-09T21:59:42.144Z,100.00
2023-04-09T22:02:13.402Z,100.00
2023-04-09T22:04:44.322Z,100.00
2023-04-09T22:07:15.522Z,100.00
2023-04-09T22:09:46.822Z,100.00
2023-04-09T22:12:17.925Z,100.00
2023-04-09T22:14:48.395Z,100.00
2023-04-09T22:17:18.899Z,100.00
2023-04-09T22:19:49.968Z,100.00
2023-04-09T22:22:20.998Z,100.00
2023-04-09T22:24:51.600Z,100.00
2023-04-09T22:27:25.962Z,100.00
2023-04-09T22:29:57.125Z,100.00
2023-04-09T22:32:28.023Z,100.00
2023-04-09T22:34:59.050Z,100.00
2023-04-09T22:37:29.754Z,100.00
2023-04-09T22:40:00.176Z,100.00
2023-04-09T22:42:30.599Z,100.00
2023-04-09T22:45:01.589Z,100.00
2023-04-09T22:47:32.427Z,100.00
2023-04-09T22:50:02.988Z,100.00
2023-04-09T22:52:34.185Z,100.00
2023-04-09T22:55:05.151Z,100.00
2023-04-09T22:57:36.177Z,100.00
2023-04-09T23:00:08.008Z,100.00
2023-04-09T23:02:39.851Z,100.00
2023-04-09T23:05:10.934Z,100.00
2023-04-09T23:07:41.565Z,100.00
2023-04-09T23:10:12.497Z,100.00
2023-04-09T23:12:43.540Z,100.00
2023-04-09T23:15:14.254Z,100.00
2023-04-09T23:17:45.493Z,100.00
2023-04-09T23:20:16.076Z,100.00
2023-04-09T23:22:47.869Z,100.00
2023-04-09T23:25:18.884Z,100.00
2023-04-09T23:27:50.731Z,100.00
2023-04-09T23:30:22.302Z,100.00
2023-04-09T23:32:54.948Z,100.00
2023-04-09T23:35:26.056Z,100.00
2023-04-09T23:37:58.158Z,100.00
2023-04-09T23:40:29.995Z,100.00
2023-04-09T23:43:00.455Z,100.00
2023-04-09T23:45:32.271Z,100.00
2023-04-09T23:48:05.311Z,100.00
2023-04-09T23:50:56.466Z,100.00
2023-04-09T23:53:27.580Z,100.00
2023-04-09T23:55:57.956Z,100.00
2023-04-09T23:58:28.893Z,100.00
